Time;durP1;ratioP1;P1;durP2;ratioP2;P2;SDS_P1;SDS_P2;PMS_P1;PMS_P2;Temp;Humidity;BMP_temperature;BMP_pressure;BME280_temperature;BME280_humidity;BME280_pressure;Samples;Min_cycle;Max_cycle;Signal;HPM_P1;HPM_P2
2021/10/08 09:43:53;;;;;;;6.75;1.65;;;;;;;;;;5086155;27;20495;-72
2021/10/08 09:46:37;;;;;;;6.05;1.65;;;;;;;;;;5071445;28;20039;-72
2021/10/08 09:49:25;;;;;;;4.47;1.75;;;;;;;;;;5076151;28;20509;-72
2021/10/08 09:52:22;;;;;;;5.85;1.77;;;;;;;;;;5074243;28;20067;-72
2021/10/08 09:55:11;;;;;;;5.25;1.48;;;;;;;;;;5052731;28;20047;-72
2021/10/08 09:57:57;;;;;;;5.97;1.70;;;;;;;;;;5069500;28;20075;-72
2021/10/08 10:00:49;;;;;;;6.25;1.55;;;;;;;;;;5053040;28;20087;-72
2021/10/08 10:03:34;;;;;;;4.72;1.67;;;;;;;;;;5047772;28;20039;-72
2021/10/08 10:06:20;;;;;;;5.57;1.70;;;;;;;;;;5056614;28;20071;-72
2021/10/08 10:09:07;;;;;;;5.30;2.10;;;;;;;;;;5061757;28;20047;-73
2021/10/08 10:11:52;;;;;;;4.57;1.73;;;;;;;;;;5043914;28;20044;-72
2021/10/08 10:14:36;;;;;;;4.45;1.80;;;;;;;;;;5042671;28;20125;-72
2021/10/08 10:17:21;;;;;;;4.65;1.80;;;;;;;;;;5053646;28;20055;-72
2021/10/08 10:20:05;;;;;;;3.80;2.00;;;;;;;;;;5068437;28;20044;-72
2021/10/08 10:22:50;;;;;;;7.53;1.75;;;;;;;;;;5073705;28;20420;-72
2021/10/08 10:25:35;;;;;;;6.82;1.80;;;;;;;;;;5051294;28;20036;-72
2021/10/08 10:28:19;;;;;;;6.40;2.00;;;;;;;;;;5036043;28;20067;-72
2021/10/08 10:31:04;;;;;;;4.80;1.90;;;;;;;;;;5059335;28;20137;-72
2021/10/08 10:33:49;;;;;;;6.80;1.98;;;;;;;;;;5051707;28;20098;-72
2021/10/08 10:36:41;;;;;;;3.33;1.80;;;;;;;;;;5078851;28;20502;-72
2021/10/08 10:39:25;;;;;;;4.45;1.70;;;;;;;;;;5053629;28;20486;-72
2021/10/08 10:42:14;;;;;;;5.57;2.30;;;;;;;;;;5055690;28;20072;-72
2021/10/08 10:45:06;;;;;;;7.45;1.65;;;;;;;;;;5057976;28;20540;-72
2021/10/08 10:48:09;;;;;;;4.40;1.65;;;;;;;;;;5038831;28;20075;-72
2021/10/08 10:51:11;;;;;;;4.28;1.58;;;;;;;;;;5063529;28;20079;-72
2021/10/08 10:53:55;;;;;;;5.50;1.85;;;;;;;;;;5049337;28;20049;-72
2021/10/08 10:56:43;;;;;;;5.35;1.80;;;;;;;;;;5036255;28;20656;-71
2021/10/08 10:59:28;;;;;;;6.30;1.92;;;;;;;;;;5038643;28;20514;-71
2021/10/08 11:02:16;;;;;;;3.25;1.67;;;;;;;;;;5041416;28;20048;-71
2021/10/08 11:05:19;;;;;;;4.65;1.65;;;;;;;;;;5039972;28;20043;-71
2021/10/08 11:08:04;;;;;;;2.80;1.52;;;;;;;;;;5059625;28;20151;-71
2021/10/08 11:11:01;;;;;;;5.75;1.73;;;;;;;;;;5057626;28;20094;-71
2021/10/08 11:13:46;;;;;;;5.25;2.00;;;;;;;;;;5044490;28;20048;-71
2021/10/08 11:16:31;;;;;;;3.95;1.67;;;;;;;;;;5047650;28;20788;-71
2021/10/08 11:19:34;;;;;;;5.00;1.77;;;;;;;;;;5035175;28;20075;-71
2021/10/08 11:22:27;;;;;;;6.30;1.52;;;;;;;;;;5039140;28;20048;-71
2021/10/08 11:25:14;;;;;;;6.05;2.17;;;;;;;;;;5028293;28;20124;-71
2021/10/08 11:27:59;;;;;;;6.90;1.77;;;;;;;;;;5046370;28;20111;-71
2021/10/08 11:30:48;;;;;;;4.18;1.60;;;;;;;;;;5032261;28;20063;-71
2021/10/08 11:33:33;;;;;;;5.22;1.88;;;;;;;;;;5047486;28;20175;-71
2021/10/08 11:36:19;;;;;;;3.90;1.70;;;;;;;;;;5047801;28;20117;-71
2021/10/08 11:39:11;;;;;;;4.38;1.90;;;;;;;;;;5041067;28;20043;-69
2021/10/08 11:42:08;;;;;;;5.35;1.70;;;;;;;;;;5035828;28;20055;-68
2021/10/08 11:44:57;;;;;;;4.55;1.50;;;;;;;;;;5062306;28;20525;-68
2021/10/08 11:47:50;;;;;;;3.28;1.55;;;;;;;;;;5040364;28;20048;-68
2021/10/08 11:53:20;;;;;;;7.30;1.70;;;;;;;;;;5045740;28;20098;-68
2021/10/08 11:56:24;;;;;;;3.47;1.80;;;;;;;;;;5046230;28;20469;-69
2021/10/08 11:59:10;;;;;;;5.05;1.60;;;;;;;;;;5038057;28;20048;-68
2021/10/08 12:02:10;;;;;;;3.72;1.67;;;;;;;;;;5028074;28;20080;-69
2021/10/08 12:05:02;;;;;;;3.47;1.83;;;;;;;;;;5031492;28;20078;-69
2021/10/08 12:08:01;;;;;;;3.15;1.88;;;;;;;;;;5044625;28;20059;-68
2021/10/08 12:10:52;;;;;;;4.82;1.70;;;;;;;;;;5036416;28;20071;-68
2021/10/08 12:13:37;;;;;;;3.85;1.75;;;;;;;;;;5035425;28;20055;-68
2021/10/08 12:16:22;;;;;;;4.43;1.70;;;;;;;;;;5030010;28;20051;-69
2021/10/08 12:19:07;;;;;;;3.65;1.50;;;;;;;;;;5050692;28;20494;-69
2021/10/08 12:21:52;;;;;;;4.55;1.55;;;;;;;;;;5047479;28;20098;-68
2021/10/08 12:24:37;;;;;;;5.40;2.05;;;;;;;;;;5046839;28;20067;-69
2021/10/08 12:27:22;;;;;;;4.15;1.60;;;;;;;;;;5048478;28;20115;-68
2021/10/08 12:30:06;;;;;;;3.55;1.60;;;;;;;;;;5049568;28;20040;-68
2021/10/08 12:33:01;;;;;;;2.97;1.83;;;;;;;;;;5046974;28;20051;-69
2021/10/08 12:35:46;;;;;;;4.50;1.70;;;;;;;;;;5025745;28;20040;-69
2021/10/08 12:38:50;;;;;;;5.20;2.10;;;;;;;;;;5043780;28;20043;-69
2021/10/08 12:42:03;;;;;;;4.32;1.60;;;;;;;;;;5041678;28;20094;-70
2021/10/08 12:44:49;;;;;;;4.32;1.70;;;;;;;;;;5043965;28;20431;-70
2021/10/08 12:47:38;;;;;;;3.80;1.60;;;;;;;;;;5038841;28;20040;-69
2021/10/08 12:50:23;;;;;;;5.97;1.67;;;;;;;;;;5060858;28;20147;-71
2021/10/08 12:53:18;;;;;;;5.55;1.80;;;;;;;;;;5037723;28;20051;-68
2021/10/08 12:56:19;;;;;;;2.67;1.50;;;;;;;;;;5039565;28;20036;-68
2021/10/08 12:59:03;;;;;;;3.83;1.83;;;;;;;;;;5042359;28;20133;-69
2021/10/08 13:01:55;;;;;;;6.00;2.00;;;;;;;;;;5044917;28;20657;-68
2021/10/08 13:04:41;;;;;;;2.80;1.70;;;;;;;;;;5027047;28;20040;-69
2021/10/08 13:07:26;;;;;;;4.13;1.73;;;;;;;;;;5045068;28;20182;-69
2021/10/08 13:10:11;;;;;;;3.33;1.80;;;;;;;;;;5046117;28;20047;-69
2021/10/08 13:12:56;;;;;;;3.58;1.50;;;;;;;;;;5032175;28;20051;-69
2021/10/08 13:15:43;;;;;;;4.30;1.63;;;;;;;;;;5046156;28;20052;-70
2021/10/08 13:18:43;;;;;;;4.43;1.33;;;;;;;;;;5045797;28;20035;-69
2021/10/08 13:21:27;;;;;;;4.03;1.50;;;;;;;;;;5048810;28;20051;-68
2021/10/08 13:24:12;;;;;;;4.85;1.60;;;;;;;;;;5024970;28;20036;-69
2021/10/08 13:27:00;;;;;;;3.33;1.52;;;;;;;;;;5034864;28;20043;-70
2021/10/08 13:29:45;;;;;;;4.75;1.67;;;;;;;;;;5044584;28;20051;-70
2021/10/08 13:32:29;;;;;;;5.13;1.80;;;;;;;;;;5038612;28;20613;-69
2021/10/08 13:35:14;;;;;;;4.72;1.83;;;;;;;;;;5061547;28;20035;-69
2021/10/08 13:37:59;;;;;;;8.85;1.90;;;;;;;;;;5046702;28;20460;-69
2021/10/08 13:40:44;;;;;;;4.78;1.70;;;;;;;;;;5052866;28;20064;-70
2021/10/08 13:43:28;;;;;;;5.43;1.73;;;;;;;;;;5025847;28;20139;-69
2021/10/08 13:46:13;;;;;;;4.70;1.52;;;;;;;;;;5052618;28;20047;-69
2021/10/08 13:48:58;;;;;;;2.95;1.40;;;;;;;;;;5057668;28;20407;-70
2021/10/08 13:51:43;;;;;;;3.67;1.60;;;;;;;;;;5043352;28;20051;-71
2021/10/08 13:54:27;;;;;;;3.95;1.60;;;;;;;;;;5041030;28;20044;-70
2021/10/08 13:57:12;;;;;;;4.47;1.67;;;;;;;;;;5045630;28;20055;-70
2021/10/08 13:59:57;;;;;;;4.32;1.50;;;;;;;;;;5039778;28;20053;-72
2021/10/08 14:02:49;;;;;;;7.63;2.10;;;;;;;;;;5040754;28;20511;-72
2021/10/08 14:08:44;;;;;;;4.07;1.50;;;;;;;;;;5042711;28;20052;-72
2021/10/08 14:11:29;;;;;;;4.57;1.38;;;;;;;;;;5034655;28;20083;-72
2021/10/08 14:14:13;;;;;;;2.45;1.30;;;;;;;;;;5046301;28;20094;-72
2021/10/08 14:16:57;;;;;;;4.55;1.70;;;;;;;;;;5047699;28;20067;-72
2021/10/08 14:19:42;;;;;;;5.07;1.80;;;;;;;;;;5041324;28;20044;-72
2021/10/08 14:22:27;;;;;;;3.97;1.48;;;;;;;;;;5058085;28;20199;-72
2021/10/08 14:25:11;;;;;;;4.65;1.55;;;;;;;;;;5043653;28;20043;-72
2021/10/08 14:27:56;;;;;;;4.63;1.52;;;;;;;;;;5044561;28;20048;-71
2021/10/08 14:30:41;;;;;;;3.85;1.80;;;;;;;;;;5047879;28;20040;-72
2021/10/08 14:33:25;;;;;;;4.82;1.45;;;;;;;;;;5055315;28;20420;-72
2021/10/08 14:36:10;;;;;;;3.00;1.40;;;;;;;;;;5065571;28;20435;-73
2021/10/08 14:38:55;;;;;;;2.53;1.42;;;;;;;;;;5054719;28;20140;-73
2021/10/08 14:41:40;;;;;;;3.05;1.35;;;;;;;;;;5045772;28;20122;-73
2021/10/08 14:44:25;;;;;;;5.35;1.33;;;;;;;;;;5038437;28;20132;-70
2021/10/08 14:47:09;;;;;;;3.58;1.83;;;;;;;;;;5052549;28;20059;-70
2021/10/08 14:49:54;;;;;;;4.72;1.52;;;;;;;;;;5043531;28;20083;-70
2021/10/08 14:52:40;;;;;;;4.30;1.60;;;;;;;;;;5057390;28;20128;-70
2021/10/08 14:58:15;;;;;;;4.97;1.60;;;;;;;;;;5032492;28;20064;-70
2021/10/08 15:01:02;;;;;;;4.78;1.58;;;;;;;;;;5051339;28;20148;-70
2021/10/08 15:03:47;;;;;;;2.85;1.40;;;;;;;;;;5049834;28;20039;-70
2021/10/08 15:06:32;;;;;;;3.35;1.38;;;;;;;;;;5049821;28;20064;-70
2021/10/08 15:09:16;;;;;;;2.90;1.45;;;;;;;;;;5044517;28;20537;-70
2021/10/08 15:12:02;;;;;;;3.42;1.50;;;;;;;;;;5049354;28;20063;-70
2021/10/08 15:14:46;;;;;;;2.60;1.30;;;;;;;;;;5050310;28;20118;-70
2021/10/08 15:17:31;;;;;;;2.53;1.70;;;;;;;;;;5066766;28;20051;-71
2021/10/08 15:20:16;;;;;;;2.45;1.35;;;;;;;;;;5059867;28;20164;-70
2021/10/08 15:23:00;;;;;;;4.30;1.52;;;;;;;;;;5042794;28;20140;-70
2021/10/08 15:25:45;;;;;;;2.42;1.42;;;;;;;;;;5061942;28;20103;-70
2021/10/08 15:28:29;;;;;;;3.75;1.50;;;;;;;;;;5063871;28;20075;-70
2021/10/08 15:31:14;;;;;;;3.17;1.35;;;;;;;;;;5068952;28;20050;-70
2021/10/08 15:33:58;;;;;;;3.22;1.45;;;;;;;;;;5058855;28;20138;-71
2021/10/08 15:36:43;;;;;;;2.10;1.40;;;;;;;;;;5067693;28;20180;-70
2021/10/08 15:39:28;;;;;;;2.80;1.42;;;;;;;;;;5066907;28;20747;-72
2021/10/08 15:42:13;;;;;;;2.35;1.25;;;;;;;;;;5054159;28;20060;-71
2021/10/08 15:44:58;;;;;;;5.22;1.48;;;;;;;;;;5045381;28;20139;-71
2021/10/08 15:47:43;;;;;;;2.42;1.45;;;;;;;;;;5052004;28;20094;-72
2021/10/08 15:50:28;;;;;;;2.55;1.40;;;;;;;;;;5029884;28;20047;-71
2021/10/08 15:53:12;;;;;;;3.20;1.27;;;;;;;;;;5033019;28;20052;-72
2021/10/08 15:55:57;;;;;;;3.53;1.33;;;;;;;;;;5059780;28;20114;-70
2021/10/08 15:58:42;;;;;;;3.03;1.45;;;;;;;;;;5055419;28;20542;-70
2021/10/08 16:01:26;;;;;;;4.13;1.33;;;;;;;;;;5067870;28;20055;-70
2021/10/08 16:04:10;;;;;;;2.65;1.50;;;;;;;;;;5065838;28;20044;-71
2021/10/08 16:06:55;;;;;;;3.33;1.58;;;;;;;;;;5047188;28;20140;-70
2021/10/08 16:09:40;;;;;;;4.07;1.67;;;;;;;;;;5061720;28;20055;-71
2021/10/08 16:12:25;;;;;;;3.42;1.27;;;;;;;;;;5069418;28;20055;-70
2021/10/08 16:15:10;;;;;;;3.00;1.20;;;;;;;;;;5037607;28;20219;-70
2021/10/08 16:17:58;;;;;;;3.28;1.30;;;;;;;;;;5053228;28;20082;-71
2021/10/08 16:20:44;;;;;;;2.50;1.38;;;;;;;;;;5049641;28;20064;-71
2021/10/08 16:23:29;;;;;;;2.90;1.40;;;;;;;;;;5047415;28;20110;-71
2021/10/08 16:26:15;;;;;;;2.00;1.15;;;;;;;;;;5048563;28;20068;-70
2021/10/08 16:28:59;;;;;;;2.83;1.48;;;;;;;;;;5037588;28;20463;-70
2021/10/08 16:31:44;;;;;;;3.92;1.40;;;;;;;;;;5028246;28;20040;-70
2021/10/08 16:34:28;;;;;;;4.47;1.40;;;;;;;;;;5048193;28;20106;-71
2021/10/08 16:37:13;;;;;;;2.85;1.60;;;;;;;;;;5063828;28;20043;-70
2021/10/08 16:39:58;;;;;;;3.17;1.50;;;;;;;;;;5047377;28;20075;-71
2021/10/08 16:42:43;;;;;;;4.00;1.60;;;;;;;;;;5033812;28;20435;-70
2021/10/08 16:45:32;;;;;;;3.63;1.83;;;;;;;;;;5033070;28;20110;-71
2021/10/08 16:48:17;;;;;;;2.28;1.40;;;;;;;;;;5042866;28;20246;-70
2021/10/08 16:51:01;;;;;;;3.13;1.42;;;;;;;;;;5068466;28;20055;-71
2021/10/08 16:53:48;;;;;;;2.90;1.40;;;;;;;;;;5065303;28;20129;-70
2021/10/08 16:56:33;;;;;;;3.05;1.60;;;;;;;;;;5066874;28;20450;-70
2021/10/08 16:59:18;;;;;;;5.28;1.55;;;;;;;;;;5051171;28;20052;-71
2021/10/08 17:02:02;;;;;;;2.95;1.40;;;;;;;;;;5047564;28;20549;-71
2021/10/08 17:04:47;;;;;;;3.17;1.63;;;;;;;;;;5035703;28;20039;-71
2021/10/08 17:07:31;;;;;;;2.95;1.60;;;;;;;;;;5046229;28;20039;-71
2021/10/08 17:10:16;;;;;;;3.58;1.70;;;;;;;;;;5044494;28;20565;-71
2021/10/08 17:13:01;;;;;;;2.17;1.60;;;;;;;;;;5050411;28;20503;-71
2021/10/08 17:15:45;;;;;;;3.22;1.60;;;;;;;;;;5043955;28;20036;-71
2021/10/08 17:18:30;;;;;;;3.00;1.70;;;;;;;;;;5037504;28;20043;-72
2021/10/08 17:21:15;;;;;;;3.17;1.73;;;;;;;;;;5042868;28;20035;-71
2021/10/08 17:24:03;;;;;;;4.13;1.83;;;;;;;;;;5047298;28;20076;-71
2021/10/08 17:26:54;;;;;;;3.75;2.08;;;;;;;;;;5043423;28;20083;-71
2021/10/08 17:35:36;;;;;;;3.65;2.17;;;;;;;;;;5040804;28;20121;-70
2021/10/08 17:38:22;;;;;;;3.72;1.75;;;;;;;;;;5031984;28;20031;-71
2021/10/08 17:41:07;;;;;;;3.70;2.20;;;;;;;;;;5034440;28;21036;-70
2021/10/08 17:43:51;;;;;;;4.05;2.20;;;;;;;;;;5058202;28;20125;-71
2021/10/08 17:46:36;;;;;;;6.50;2.10;;;;;;;;;;5055069;28;20114;-71
2021/10/08 17:49:20;;;;;;;2.75;1.80;;;;;;;;;;5050535;28;20058;-71
2021/10/08 17:52:05;;;;;;;3.22;2.00;;;;;;;;;;5051534;28;20790;-72
2021/10/08 17:54:50;;;;;;;2.72;1.90;;;;;;;;;;5023939;28;20380;-71
2021/10/08 17:57:34;;;;;;;4.00;2.20;;;;;;;;;;5043732;28;20048;-71
2021/10/08 18:00:18;;;;;;;3.38;2.13;;;;;;;;;;5053667;28;20096;-71
2021/10/08 18:03:03;;;;;;;4.80;2.03;;;;;;;;;;5046379;28;20040;-70
2021/10/08 18:05:49;;;;;;;3.15;2.10;;;;;;;;;;5047551;28;20040;-71
2021/10/08 18:08:38;;;;;;;4.63;2.42;;;;;;;;;;5048996;28;20459;-71
2021/10/08 18:11:22;;;;;;;4.47;2.60;;;;;;;;;;5065371;28;20042;-71
2021/10/08 18:14:07;;;;;;;4.55;2.33;;;;;;;;;;5059284;28;20056;-71
2021/10/08 18:16:52;;;;;;;3.03;2.13;;;;;;;;;;5032578;28;20562;-70
2021/10/08 18:19:37;;;;;;;3.25;2.17;;;;;;;;;;5048096;28;20112;-71
2021/10/08 18:22:21;;;;;;;5.38;2.47;;;;;;;;;;5051461;28;20067;-71
2021/10/08 18:25:06;;;;;;;4.28;2.20;;;;;;;;;;5046771;28;20099;-71
2021/10/08 18:27:51;;;;;;;3.05;2.20;;;;;;;;;;5046414;28;20079;-71
2021/10/08 18:30:45;;;;;;;2.88;2.10;;;;;;;;;;5058016;28;20491;-71
2021/10/08 18:33:30;;;;;;;3.60;2.30;;;;;;;;;;5040785;28;20048;-71
2021/10/08 18:36:15;;;;;;;4.95;2.40;;;;;;;;;;5058994;28;20110;-72
2021/10/08 18:39:00;;;;;;;6.28;2.97;;;;;;;;;;5060361;28;20602;-72
2021/10/08 18:41:45;;;;;;;3.33;2.50;;;;;;;;;;5070623;28;20055;-72
2021/10/08 18:44:30;;;;;;;4.82;2.42;;;;;;;;;;5063962;28;20048;-72
2021/10/08 18:47:15;;;;;;;5.22;2.60;;;;;;;;;;5049394;28;21829;-72
2021/10/08 18:50:00;;;;;;;4.75;2.40;;;;;;;;;;5050564;28;20107;-71
2021/10/08 18:52:45;;;;;;;5.68;3.08;;;;;;;;;;5047690;28;20057;-72
2021/10/08 18:55:30;;;;;;;5.55;2.53;;;;;;;;;;5050444;28;20043;-72
2021/10/08 18:58:15;;;;;;;3.70;2.70;;;;;;;;;;5042586;28;20043;-72
2021/10/08 19:01:01;;;;;;;5.47;2.83;;;;;;;;;;5049882;28;20080;-72
2021/10/08 19:03:46;;;;;;;7.90;2.90;;;;;;;;;;5057211;28;20105;-72
2021/10/08 19:06:31;;;;;;;4.90;2.90;;;;;;;;;;5040709;28;20036;-72
2021/10/08 19:09:20;;;;;;;4.30;2.65;;;;;;;;;;5054802;28;20109;-72
2021/10/08 19:12:10;;;;;;;4.30;2.90;;;;;;;;;;5041295;28;20040;-72
2021/10/08 19:14:59;;;;;;;4.18;2.72;;;;;;;;;;5059426;28;20146;-72
2021/10/08 19:20:42;;;;;;;4.30;3.00;;;;;;;;;;5059762;28;20056;-72
2021/10/08 19:23:27;;;;;;;5.95;2.90;;;;;;;;;;5049221;28;21807;-72
2021/10/08 19:26:13;;;;;;;5.18;2.80;;;;;;;;;;5052607;28;20123;-72
2021/10/08 19:28:58;;;;;;;4.85;2.75;;;;;;;;;;5051245;28;20181;-72
2021/10/08 19:31:43;;;;;;;5.13;3.13;;;;;;;;;;5059155;28;20067;-72
2021/10/08 19:34:28;;;;;;;4.57;2.75;;;;;;;;;;5060878;28;20106;-71
2021/10/08 19:37:13;;;;;;;4.25;3.03;;;;;;;;;;5049891;28;20039;-72
